createdAt,value
2019-06-10T00:01:13.410Z,0.00
2019-06-10T00:01:40.872Z,0.00
2019-06-10T00:02:41.411Z,0.00
2019-06-10T00:03:42.129Z,0.00
2019-06-10T00:04:41.550Z,0.00
2019-06-10T00:05:41.502Z,0.00
2019-06-10T00:06:41.542Z,0.00
2019-06-10T00:07:41.080Z,0.00
2019-06-10T00:08:41.201Z,0.00
2019-06-10T00:09:40.729Z,0.00
2019-06-10T00:10:42.026Z,0.00
2019-06-10T00:11:41.113Z,0.00
2019-06-10T00:12:41.843Z,0.00
2019-06-10T00:13:41.496Z,0.00
2019-06-10T00:14:41.830Z,0.00
2019-06-10T00:15:40.958Z,0.00
2019-06-10T00:16:41.568Z,0.00
2019-06-10T00:17:53.098Z,0.00
2019-06-10T00:18:43.052Z,0.00
2019-06-10T00:19:40.978Z,0.00
2019-06-10T00:20:40.850Z,0.00
2019-06-10T00:21:41.360Z,0.00
2019-06-10T00:22:40.940Z,0.00
2019-06-10T00:23:41.299Z,0.00
2019-06-10T00:24:40.946Z,0.00
2019-06-10T00:25:41.511Z,0.00
2019-06-10T00:26:41.352Z,0.00
2019-06-10T00:27:41.878Z,0.00
2019-06-10T00:28:40.668Z,0.00
2019-06-10T00:29:40.902Z,0.00
2019-06-10T00:30:41.115Z,0.00
2019-06-10T00:31:41.657Z,0.00
2019-06-10T00:32:41.218Z,0.00
2019-06-10T00:33:41.418Z,0.00
2019-06-10T00:34:41.713Z,0.00
2019-06-10T00:35:41.197Z,0.00
2019-06-10T00:36:41.403Z,0.00
2019-06-10T00:37:41.726Z,0.00
2019-06-10T00:38:41.169Z,0.00
2019-06-10T00:39:40.858Z,0.00
2019-06-10T00:40:41.498Z,0.00
2019-06-10T00:41:39.517Z,0.00
2019-06-10T00:42:41.632Z,0.00
2019-06-10T00:43:41.170Z,0.00
2019-06-10T00:44:41.491Z,0.00
2019-06-10T00:45:41.002Z,0.00
2019-06-10T00:46:40.841Z,0.00
2019-06-10T00:47:41.294Z,0.00
2019-06-10T00:48:40.996Z,0.00
2019-06-10T00:49:40.943Z,0.00
2019-06-10T00:50:41.380Z,0.00
2019-06-10T00:51:41.333Z,0.00
2019-06-10T00:52:42.217Z,0.00
2019-06-10T00:53:39.325Z,0.00
2019-06-10T00:54:41.584Z,0.00
2019-06-10T00:55:41.489Z,0.00
2019-06-10T00:56:41.237Z,0.00
2019-06-10T00:57:41.698Z,0.00
2019-06-10T00:58:40.851Z,0.00
2019-06-10T00:59:41.243Z,0.00
2019-06-10T01:00:41.160Z,0.00
2019-06-10T01:01:41.376Z,0.00
2019-06-10T01:02:41.077Z,0.00
2019-06-10T01:03:41.448Z,0.00
2019-06-10T01:04:40.766Z,0.00
2019-06-10T01:05:41.741Z,0.00
2019-06-10T01:06:39.110Z,0.00
2019-06-10T01:07:41.220Z,0.00
2019-06-10T01:08:40.541Z,0.00
2019-06-10T01:09:41.164Z,0.00
2019-06-10T01:10:39.048Z,0.00
2019-06-10T01:11:41.052Z,0.00
2019-06-10T01:12:40.716Z,0.00
2019-06-10T01:13:41.252Z,0.00
2019-06-10T01:14:41.035Z,0.00
2019-06-10T01:15:41.657Z,0.00
2019-06-10T01:16:41.029Z,0.00
2019-06-10T01:17:38.934Z,0.00
2019-06-10T01:18:41.445Z,0.00
2019-06-10T01:19:41.374Z,0.00
2019-06-10T01:20:41.033Z,0.00
2019-06-10T01:21:38.866Z,0.00
2019-06-10T01:22:40.906Z,0.00
2019-06-10T01:23:38.835Z,0.00
2019-06-10T01:24:40.729Z,0.00
2019-06-10T01:25:38.800Z,0.00
2019-06-10T01:26:41.057Z,0.00
2019-06-10T01:27:40.885Z,0.00
2019-06-10T01:28:40.900Z,0.00
2019-06-10T01:29:38.735Z,0.00
2019-06-10T01:30:41.013Z,0.00
2019-06-10T01:31:38.703Z,0.00
2019-06-10T01:32:38.687Z,0.00
2019-06-10T01:33:40.956Z,0.00
2019-06-10T01:34:38.655Z,0.00
2019-06-10T01:35:41.178Z,0.00
2019-06-10T01:36:40.512Z,0.00
2019-06-10T01:37:38.604Z,0.00
2019-06-10T01:38:40.813Z,0.00
2019-06-10T01:39:38.576Z,0.00
2019-06-10T01:40:38.558Z,0.00
2019-06-10T01:41:40.796Z,0.00
2019-06-10T01:42:38.527Z,0.00
2019-06-10T01:43:40.653Z,0.00
2019-06-10T01:44:38.492Z,0.00
2019-06-10T01:45:38.476Z,0.00
2019-06-10T01:46:40.916Z,0.00
2019-06-10T01:47:38.443Z,0.00
2019-06-10T01:48:45.001Z,0.00
2019-06-10T01:49:38.432Z,0.00
2019-06-10T01:50:40.509Z,0.00
2019-06-10T01:51:38.902Z,0.00
2019-06-10T01:52:38.362Z,0.00
2019-06-10T01:53:38.344Z,0.00
2019-06-10T01:54:38.333Z,0.00
2019-06-10T01:55:38.313Z,0.00
2019-06-10T01:56:40.715Z,0.00
2019-06-10T01:57:38.283Z,0.00
2019-06-10T01:58:40.537Z,0.00
2019-06-10T01:59:38.248Z,0.00
2019-06-10T02:00:38.235Z,0.00
2019-06-10T02:01:38.237Z,0.00
2019-06-10T02:02:38.215Z,0.00
2019-06-10T02:03:38.182Z,0.00
2019-06-10T02:04:41.001Z,0.00
2019-06-10T02:05:38.150Z,0.00
2019-06-10T02:06:40.501Z,0.00
2019-06-10T02:07:38.120Z,0.00
2019-06-10T02:08:38.105Z,0.00
2019-06-10T02:09:38.084Z,0.00
2019-06-10T02:10:38.070Z,0.00
2019-06-10T02:11:38.118Z,0.00
2019-06-10T02:12:38.039Z,0.00
2019-06-10T02:13:38.019Z,0.00
2019-06-10T02:14:38.005Z,0.00
2019-06-10T02:15:37.988Z,0.00
2019-06-10T02:16:37.971Z,0.00
2019-06-10T02:17:37.953Z,0.00
2019-06-10T02:18:37.939Z,0.00
2019-06-10T02:19:37.921Z,0.00
2019-06-10T02:20:37.904Z,0.00
2019-06-10T02:21:37.937Z,0.00
2019-06-10T02:22:37.872Z,0.00
2019-06-10T02:23:37.854Z,0.00
2019-06-10T02:24:37.839Z,0.00
2019-06-10T02:25:37.822Z,0.00
2019-06-10T02:26:37.806Z,0.00
2019-06-10T02:27:37.794Z,0.00
2019-06-10T02:28:37.775Z,0.00
2019-06-10T02:29:37.755Z,0.00
2019-06-10T02:30:46.186Z,0.00
2019-06-10T02:31:38.029Z,0.00
2019-06-10T02:32:38.169Z,0.00
2019-06-10T02:33:37.690Z,0.00
2019-06-10T02:34:50.645Z,0.00
2019-06-10T02:35:43.296Z,0.00
2019-06-10T02:36:37.643Z,0.00
2019-06-10T02:37:38.319Z,0.00
2019-06-10T02:38:39.574Z,0.00
2019-06-10T02:39:38.902Z,0.00
2019-06-10T02:40:37.574Z,0.00
2019-06-10T02:41:37.558Z,0.00
2019-06-10T02:42:37.541Z,0.00
2019-06-10T02:43:38.159Z,0.00
2019-06-10T02:44:37.904Z,0.00
2019-06-10T02:45:37.839Z,0.00
2019-06-10T02:46:37.474Z,0.00
2019-06-10T02:47:38.387Z,0.00
2019-06-10T02:48:37.440Z,0.00
2019-06-10T02:49:52.646Z,0.00
2019-06-10T02:50:37.412Z,0.00
2019-06-10T02:51:37.392Z,0.00
2019-06-10T02:52:38.674Z,0.00
2019-06-10T02:53:37.653Z,0.00
2019-06-10T02:54:37.341Z,0.00
2019-06-10T02:55:37.324Z,0.00
2019-06-10T02:56:37.309Z,0.00
2019-06-10T02:57:40.318Z,0.00
2019-06-10T02:58:39.903Z,0.00
2019-06-10T02:59:37.258Z,0.00
2019-06-10T03:00:47.207Z,0.00
2019-06-10T03:01:38.287Z,0.00
2019-06-10T03:02:37.210Z,0.00
2019-06-10T03:03:44.604Z,0.00
2019-06-10T03:04:37.924Z,0.00
2019-06-10T03:05:40.884Z,0.00
2019-06-10T03:06:40.357Z,0.00
2019-06-10T03:07:37.128Z,0.00
2019-06-10T03:08:37.167Z,0.00
2019-06-10T03:09:37.094Z,0.00
2019-06-10T03:10:37.486Z,0.00
2019-06-10T03:11:37.664Z,0.00
2019-06-10T03:12:37.044Z,0.00
2019-06-10T03:13:37.028Z,0.00
2019-06-10T03:14:37.009Z,0.00
2019-06-10T03:15:36.993Z,0.00
2019-06-10T03:16:36.976Z,0.00
2019-06-10T03:17:36.964Z,0.00
2019-06-10T03:18:36.947Z,5.63
2019-06-10T03:19:46.934Z,5.63
2019-06-10T03:20:36.911Z,5.63
2019-06-10T03:21:36.896Z,5.63
2019-06-10T03:22:36.877Z,5.63
2019-06-10T03:23:36.861Z,5.63
2019-06-10T03:24:36.849Z,5.63
2019-06-10T03:25:36.828Z,5.63
2019-06-10T03:26:36.811Z,11.25
2019-06-10T03:27:36.797Z,11.25
2019-06-10T03:28:36.777Z,11.25
2019-06-10T03:29:36.764Z,11.25
2019-06-10T03:30:48.012Z,11.25
2019-06-10T03:31:42.009Z,16.88
2019-06-10T03:32:40.913Z,16.88
2019-06-10T03:33:41.465Z,16.88
2019-06-10T03:34:41.994Z,16.88
2019-06-10T03:35:36.664Z,16.88
2019-06-10T03:36:36.647Z,16.88
2019-06-10T03:37:36.628Z,16.88
2019-06-10T03:38:37.178Z,22.50
2019-06-10T03:39:36.598Z,22.50
2019-06-10T03:40:36.579Z,22.50
2019-06-10T03:41:36.565Z,22.50
2019-06-10T03:42:36.547Z,22.50
2019-06-10T03:43:36.529Z,28.13
2019-06-10T03:44:36.515Z,28.13
2019-06-10T03:45:36.496Z,28.13
2019-06-10T03:46:36.479Z,28.13
2019-06-10T03:47:36.464Z,33.75
2019-06-10T03:48:36.448Z,33.75
2019-06-10T03:49:49.126Z,28.13
2019-06-10T03:50:36.416Z,28.13
2019-06-10T03:51:36.398Z,28.13
2019-06-10T03:52:36.380Z,28.13
2019-06-10T03:53:36.363Z,28.13
2019-06-10T03:54:36.348Z,28.13
2019-06-10T03:55:36.332Z,28.13
2019-06-10T03:56:36.316Z,28.13
2019-06-10T03:57:36.305Z,28.13
2019-06-10T03:58:36.281Z,28.13
2019-06-10T03:59:36.264Z,28.13
2019-06-10T04:00:37.055Z,28.13
2019-06-10T04:01:36.232Z,22.50
2019-06-10T04:02:36.217Z,22.50
2019-06-10T04:03:36.197Z,22.50
2019-06-10T04:04:36.181Z,22.50
2019-06-10T04:05:36.167Z,22.50
2019-06-10T04:06:36.150Z,22.50
2019-06-10T04:07:36.134Z,22.50
2019-06-10T04:08:36.116Z,22.50
2019-06-10T04:09:36.099Z,22.50
2019-06-10T04:10:36.084Z,16.88
2019-06-10T04:11:36.066Z,16.88
2019-06-10T04:12:36.052Z,16.88
2019-06-10T04:13:36.037Z,16.88
2019-06-10T04:14:36.017Z,16.88
2019-06-10T04:15:36.005Z,16.88
2019-06-10T04:16:35.986Z,16.88
2019-06-10T04:17:35.968Z,16.88
2019-06-10T04:18:35.955Z,16.88
2019-06-10T04:19:35.943Z,16.88
2019-06-10T04:20:35.923Z,16.88
2019-06-10T04:21:35.903Z,22.50
2019-06-10T04:22:35.887Z,22.50
2019-06-10T04:23:35.871Z,28.13
2019-06-10T04:24:35.856Z,28.13
2019-06-10T04:25:35.838Z,28.13
2019-06-10T04:26:35.823Z,28.13
2019-06-10T04:27:35.809Z,33.75
2019-06-10T04:28:35.790Z,33.75
2019-06-10T04:29:35.775Z,28.13
2019-06-10T04:30:35.758Z,28.13
2019-06-10T04:31:35.750Z,28.13
2019-06-10T04:32:35.726Z,28.13
2019-06-10T04:33:35.715Z,28.13
2019-06-10T04:34:35.697Z,28.13
2019-06-10T04:35:35.677Z,28.13
2019-06-10T04:36:35.665Z,28.13
2019-06-10T04:37:35.645Z,28.13
2019-06-10T04:38:35.634Z,28.13
2019-06-10T04:39:35.613Z,28.13
2019-06-10T04:40:35.597Z,28.13
2019-06-10T04:41:35.581Z,28.13
2019-06-10T04:42:35.564Z,28.13
2019-06-10T04:43:35.549Z,33.75
2019-06-10T04:44:35.533Z,33.75
2019-06-10T04:45:35.515Z,39.38
2019-06-10T04:46:35.501Z,39.38
2019-06-10T04:47:35.484Z,39.38
2019-06-10T04:48:35.470Z,45.00
2019-06-10T04:49:35.452Z,45.00
2019-06-10T04:50:42.559Z,50.63
2019-06-10T04:51:35.422Z,56.25
2019-06-10T04:52:35.409Z,56.25
2019-06-10T04:53:35.386Z,61.88
2019-06-10T04:54:35.371Z,67.50
2019-06-10T04:55:35.355Z,73.13
2019-06-10T04:56:35.337Z,78.75
2019-06-10T04:57:35.321Z,90.00
2019-06-10T04:58:35.305Z,95.63
2019-06-10T04:59:35.290Z,95.63
2019-06-10T05:00:35.273Z,101.25
2019-06-10T05:01:35.259Z,101.25
2019-06-10T05:02:35.241Z,106.88
2019-06-10T05:03:35.226Z,106.88
2019-06-10T05:04:35.215Z,106.88
2019-06-10T05:05:35.191Z,118.13
2019-06-10T05:06:35.174Z,129.38
2019-06-10T05:07:37.138Z,129.38
2019-06-10T05:08:35.145Z,135.00
2019-06-10T05:09:35.128Z,140.63
2019-06-10T05:10:35.114Z,135.00
2019-06-10T05:11:35.094Z,140.63
2019-06-10T05:12:35.079Z,151.88
2019-06-10T05:13:35.063Z,157.50
2019-06-10T05:14:35.047Z,157.50
2019-06-10T05:15:35.238Z,151.88
2019-06-10T05:16:35.821Z,151.88
2019-06-10T05:17:34.999Z,146.25
2019-06-10T05:18:34.980Z,135.00
2019-06-10T05:19:34.964Z,123.75
2019-06-10T05:20:50.989Z,123.75
2019-06-10T05:21:34.933Z,129.38
2019-06-10T05:22:34.917Z,123.75
2019-06-10T05:23:34.902Z,123.75
2019-06-10T05:24:34.888Z,129.38
2019-06-10T05:25:34.869Z,135.00
2019-06-10T05:26:34.854Z,140.63
2019-06-10T05:27:34.841Z,140.63
2019-06-10T05:28:34.822Z,151.88
2019-06-10T05:29:34.813Z,157.50
2019-06-10T05:30:34.789Z,163.13
2019-06-10T05:31:35.244Z,174.38
2019-06-10T05:32:34.760Z,185.63
2019-06-10T05:33:34.758Z,196.88
2019-06-10T05:34:34.919Z,202.50
2019-06-10T05:35:34.720Z,213.75
2019-06-10T05:36:34.913Z,236.25
2019-06-10T05:37:34.679Z,247.50
2019-06-10T05:38:35.305Z,253.13
2019-06-10T05:39:35.260Z,253.13
2019-06-10T05:40:34.634Z,241.88
2019-06-10T05:41:35.252Z,213.75
2019-06-10T05:42:36.123Z,191.25
2019-06-10T05:43:34.736Z,180.00
2019-06-10T05:44:34.739Z,174.38
2019-06-10T05:45:35.112Z,174.38
2019-06-10T05:46:35.025Z,174.38
2019-06-10T05:47:36.103Z,174.38
2019-06-10T05:48:35.142Z,174.38
2019-06-10T05:49:36.200Z,180.00
2019-06-10T05:50:34.961Z,180.00
2019-06-10T05:51:35.387Z,202.50
2019-06-10T05:52:35.180Z,225.00
2019-06-10T05:53:35.527Z,236.25
2019-06-10T05:54:35.514Z,225.00
2019-06-10T05:55:35.282Z,208.13
2019-06-10T05:56:35.719Z,225.00
2019-06-10T05:57:35.595Z,247.50
2019-06-10T05:58:35.938Z,264.38
2019-06-10T05:59:35.897Z,264.38
2019-06-10T06:00:35.506Z,264.38
2019-06-10T06:01:38.003Z,275.63
2019-06-10T06:02:35.458Z,303.75
2019-06-10T06:03:36.945Z,309.38
2019-06-10T06:04:35.921Z,303.75
2019-06-10T06:05:36.083Z,309.38
2019-06-10T06:06:35.397Z,309.38
2019-06-10T06:07:35.645Z,309.38
2019-06-10T06:08:35.481Z,343.13
2019-06-10T06:09:35.295Z,382.50
2019-06-10T06:10:36.017Z,393.75
2019-06-10T06:11:35.315Z,388.13
2019-06-10T06:12:35.736Z,376.88
2019-06-10T06:13:36.004Z,365.63
2019-06-10T06:14:35.942Z,365.63
2019-06-10T06:15:35.818Z,393.75
2019-06-10T06:16:36.124Z,416.25
2019-06-10T06:17:35.402Z,416.25
2019-06-10T06:18:36.338Z,416.25
2019-06-10T06:19:37.364Z,399.38
2019-06-10T06:20:35.896Z,410.63
2019-06-10T06:21:40.261Z,438.75
2019-06-10T06:22:35.489Z,450.00
2019-06-10T06:23:36.625Z,450.00
2019-06-10T06:24:35.557Z,450.00
2019-06-10T06:25:40.966Z,450.00
2019-06-10T06:26:37.639Z,444.38
2019-06-10T06:27:35.427Z,466.88
2019-06-10T06:28:35.969Z,478.13
2019-06-10T06:29:35.383Z,466.88
2019-06-10T06:30:36.042Z,455.63
2019-06-10T06:31:36.058Z,416.25
2019-06-10T06:32:36.321Z,433.13
2019-06-10T06:33:36.814Z,444.38
2019-06-10T06:34:35.839Z,472.50
2019-06-10T06:35:40.307Z,511.88
2019-06-10T06:36:35.374Z,540.00
2019-06-10T06:37:36.403Z,556.88
2019-06-10T06:38:35.361Z,556.88
2019-06-10T06:39:35.107Z,545.63
2019-06-10T06:40:35.446Z,562.50
2019-06-10T06:41:34.560Z,601.88
2019-06-10T06:42:35.120Z,669.38
2019-06-10T06:43:39.968Z,618.75
2019-06-10T06:44:37.375Z,691.88
2019-06-10T06:45:35.881Z,720.00
2019-06-10T06:46:36.578Z,866.25
2019-06-10T06:47:35.643Z,630.00
2019-06-10T06:48:37.018Z,765.00
2019-06-10T06:49:35.460Z,646.88
2019-06-10T06:50:35.795Z,1006.88
2019-06-10T06:51:43.941Z,1051.88
2019-06-10T06:53:04.709Z,1063.13
2019-06-10T06:53:44.366Z,1040.63
2019-06-10T06:54:35.765Z,956.25
2019-06-10T06:55:35.243Z,990.00
2019-06-10T06:56:36.099Z,978.75
2019-06-10T06:57:34.294Z,984.38
2019-06-10T06:58:35.395Z,877.50
2019-06-10T06:59:34.273Z,866.25
2019-06-10T07:00:48.939Z,826.88
2019-06-10T07:01:36.500Z,663.75
2019-06-10T07:02:34.567Z,641.25
2019-06-10T07:03:35.424Z,573.75
2019-06-10T07:04:34.307Z,489.38
2019-06-10T07:05:35.494Z,421.88
2019-06-10T07:06:34.558Z,416.25
2019-06-10T07:07:35.659Z,433.13
2019-06-10T07:08:36.171Z,478.13
2019-06-10T07:09:35.618Z,483.75
2019-06-10T07:10:34.652Z,478.13
2019-06-10T07:11:34.583Z,455.63
2019-06-10T07:12:34.703Z,438.75
2019-06-10T07:13:35.442Z,427.50
2019-06-10T07:14:36.822Z,410.63
2019-06-10T07:15:35.450Z,388.13
2019-06-10T07:16:34.592Z,354.38
2019-06-10T07:17:34.570Z,348.75
2019-06-10T07:18:38.900Z,354.38
2019-06-10T07:19:35.031Z,354.38
2019-06-10T07:20:36.296Z,354.38
2019-06-10T07:21:40.220Z,354.38
2019-06-10T07:22:35.296Z,337.50
2019-06-10T07:23:36.190Z,315.00
2019-06-10T07:24:36.012Z,298.13
2019-06-10T07:25:35.675Z,292.50
2019-06-10T07:26:35.728Z,270.00
2019-06-10T07:27:35.822Z,230.63
2019-06-10T07:28:35.813Z,196.88
2019-06-10T07:29:35.839Z,180.00
2019-06-10T07:30:36.931Z,180.00
2019-06-10T07:31:35.244Z,191.25
2019-06-10T07:32:35.856Z,202.50
2019-06-10T07:33:35.777Z,213.75
2019-06-10T07:34:36.386Z,219.38
2019-06-10T07:35:34.565Z,202.50
2019-06-10T07:36:35.294Z,196.88
2019-06-10T07:37:34.947Z,196.88
2019-06-10T07:38:35.216Z,191.25
2019-06-10T07:39:34.686Z,196.88
2019-06-10T07:40:34.430Z,202.50
2019-06-10T07:41:34.402Z,213.75
2019-06-10T07:42:34.516Z,230.63
2019-06-10T07:43:37.523Z,247.50
2019-06-10T07:44:34.317Z,270.00
2019-06-10T07:45:33.782Z,303.75
2019-06-10T07:46:33.595Z,348.75
2019-06-10T07:47:34.152Z,393.75
2019-06-10T07:48:34.840Z,410.63
2019-06-10T07:49:33.902Z,433.13
2019-06-10T07:50:33.419Z,438.75
2019-06-10T07:51:34.213Z,495.00
2019-06-10T07:52:34.359Z,590.63
2019-06-10T07:53:34.926Z,832.50
2019-06-10T07:54:34.210Z,810.00
2019-06-10T07:55:34.572Z,765.00
2019-06-10T07:56:37.229Z,826.88
2019-06-10T07:57:34.344Z,776.25
2019-06-10T07:58:35.138Z,849.38
2019-06-10T07:59:33.839Z,973.13
2019-06-10T08:00:33.678Z,1181.25
2019-06-10T08:01:34.341Z,1220.63
2019-06-10T08:02:34.071Z,1170.00
2019-06-10T08:03:34.810Z,894.38
2019-06-10T08:04:33.598Z,770.63
2019-06-10T08:05:34.107Z,781.88
2019-06-10T08:06:33.488Z,781.88
2019-06-10T08:07:33.478Z,843.75
2019-06-10T08:08:33.099Z,871.88
2019-06-10T08:09:35.673Z,742.50
2019-06-10T08:10:32.884Z,714.38
2019-06-10T08:11:33.263Z,826.88
2019-06-10T08:12:32.780Z,894.38
2019-06-10T08:13:32.773Z,922.50
2019-06-10T08:14:33.029Z,883.13
2019-06-10T08:15:32.752Z,781.88
2019-06-10T08:16:32.834Z,686.25
2019-06-10T08:17:32.888Z,663.75
2019-06-10T08:18:46.832Z,624.38
2019-06-10T08:19:37.753Z,641.25
2019-06-10T08:20:32.706Z,714.38
2019-06-10T08:21:32.699Z,765.00
2019-06-10T08:22:37.440Z,945.00
2019-06-10T08:23:33.015Z,888.75
2019-06-10T08:24:33.044Z,1276.88
2019-06-10T08:25:32.847Z,1158.75
2019-06-10T08:26:32.650Z,911.25
2019-06-10T08:27:33.582Z,877.50
2019-06-10T08:28:33.323Z,860.63
2019-06-10T08:29:33.043Z,900.00
2019-06-10T08:30:32.939Z,1687.50
2019-06-10T08:31:33.300Z,1687.50
2019-06-10T08:32:33.519Z,1305.00
2019-06-10T08:33:33.118Z,1434.38
2019-06-10T08:34:33.093Z,1513.13
2019-06-10T08:35:39.374Z,1451.25
2019-06-10T08:36:33.329Z,956.25
2019-06-10T08:37:33.164Z,1091.25
2019-06-10T08:38:33.168Z,1198.13
2019-06-10T08:39:33.474Z,1698.75
2019-06-10T08:40:32.706Z,1653.75
2019-06-10T08:41:32.546Z,1631.25
2019-06-10T08:42:32.553Z,1625.63
2019-06-10T08:43:33.221Z,1676.25
2019-06-10T08:44:32.875Z,1715.63
2019-06-10T08:45:33.354Z,1710.00
2019-06-10T08:46:32.888Z,1715.63
2019-06-10T08:47:32.726Z,1732.50
2019-06-10T08:48:32.893Z,1485.00
2019-06-10T08:49:32.822Z,1693.13
2019-06-10T08:50:33.742Z,1451.25
2019-06-10T08:51:32.613Z,1726.88
2019-06-10T08:52:49.364Z,1771.88
2019-06-10T08:53:32.989Z,1715.63
2019-06-10T08:54:32.566Z,1698.75
2019-06-10T08:55:33.461Z,1760.63
2019-06-10T08:56:32.907Z,1462.50
2019-06-10T08:57:33.527Z,1749.38
2019-06-10T08:58:33.112Z,1794.38
2019-06-10T08:59:32.701Z,1771.88
2019-06-10T09:00:33.660Z,1777.50
2019-06-10T09:01:33.509Z,1755.00
2019-06-10T09:02:33.434Z,1726.88
2019-06-10T09:03:32.654Z,1766.25
2019-06-10T09:04:33.128Z,1794.38
2019-06-10T09:05:32.538Z,1760.63
2019-06-10T09:06:32.909Z,1811.25
2019-06-10T09:07:32.466Z,1822.50
2019-06-10T09:08:32.705Z,1704.38
2019-06-10T09:09:33.498Z,1726.88
2019-06-10T09:10:33.909Z,1732.50
2019-06-10T09:11:32.859Z,1828.13
2019-06-10T09:12:36.333Z,1828.13
2019-06-10T09:13:33.720Z,1839.38
2019-06-10T09:14:32.738Z,1845.00
2019-06-10T09:15:32.567Z,1856.25
2019-06-10T09:16:33.029Z,1861.88
2019-06-10T09:17:33.813Z,1895.63
2019-06-10T09:18:33.678Z,1935.00
2019-06-10T09:19:33.242Z,1935.00
2019-06-10T09:20:33.121Z,1923.75
2019-06-10T09:21:33.059Z,1895.63
2019-06-10T09:22:32.778Z,1316.25
2019-06-10T09:23:33.132Z,2075.63
2019-06-10T09:24:32.790Z,1490.63
2019-06-10T09:25:33.388Z,2137.50
2019-06-10T09:26:33.677Z,984.38
2019-06-10T09:27:32.831Z,1147.50
2019-06-10T09:28:32.854Z,1366.88
2019-06-10T09:29:32.948Z,1636.88
2019-06-10T09:30:33.393Z,2143.13
2019-06-10T09:31:33.208Z,2092.50
2019-06-10T09:32:32.578Z,2098.13
2019-06-10T09:33:33.151Z,2030.63
2019-06-10T09:34:33.007Z,2019.38
2019-06-10T09:35:32.417Z,1929.38
2019-06-10T09:36:32.580Z,1698.75
2019-06-10T09:37:32.608Z,1749.38
2019-06-10T09:38:33.457Z,1715.63
2019-06-10T09:39:32.848Z,1901.25
2019-06-10T09:40:33.820Z,1974.38
2019-06-10T09:41:40.233Z,1951.88
2019-06-10T09:42:33.322Z,1845.00
2019-06-10T09:43:33.256Z,2025.00
2019-06-10T09:44:33.378Z,2030.63
2019-06-10T09:45:33.230Z,1912.50
2019-06-10T09:46:33.222Z,1850.63
2019-06-10T09:47:34.729Z,2070.00
2019-06-10T09:48:33.550Z,1327.50
2019-06-10T09:49:33.485Z,1265.63
2019-06-10T09:50:33.378Z,1518.75
2019-06-10T09:51:32.570Z,1642.50
2019-06-10T09:52:32.898Z,1344.38
2019-06-10T09:53:39.285Z,1170.00
2019-06-10T09:54:33.587Z,1411.88
2019-06-10T09:55:32.908Z,1884.38
2019-06-10T09:56:33.115Z,1755.00
2019-06-10T09:57:32.339Z,1389.38
2019-06-10T09:58:32.981Z,1451.25
2019-06-10T09:59:32.400Z,1569.38
2019-06-10T10:00:33.207Z,1580.63
2019-06-10T10:01:32.759Z,1372.50
2019-06-10T10:02:33.174Z,1276.88
2019-06-10T10:03:33.176Z,1085.63
2019-06-10T10:04:32.845Z,1023.75
2019-06-10T10:05:33.799Z,1231.88
2019-06-10T10:06:32.705Z,1091.25
2019-06-10T10:07:32.511Z,1091.25
2019-06-10T10:08:32.713Z,1243.13
2019-06-10T10:09:36.780Z,1209.38
2019-06-10T10:10:32.747Z,1468.13
2019-06-10T10:11:32.295Z,1873.13
2019-06-10T10:12:32.773Z,1755.00
2019-06-10T10:13:35.329Z,1805.63
2019-06-10T10:14:33.463Z,1833.75
2019-06-10T10:15:34.506Z,1648.13
2019-06-10T10:16:33.886Z,1181.25
2019-06-10T10:17:33.379Z,1215.00
2019-06-10T10:18:33.475Z,1383.75
2019-06-10T10:19:32.268Z,1400.63
2019-06-10T10:20:34.090Z,1366.88
2019-06-10T10:21:32.263Z,1321.88
2019-06-10T10:22:34.060Z,1417.50
2019-06-10T10:23:48.378Z,1271.25
2019-06-10T10:24:34.027Z,1344.38
2019-06-10T10:25:33.253Z,1490.63
2019-06-10T10:26:32.243Z,1732.50
2019-06-10T10:27:32.442Z,1513.13
2019-06-10T10:28:33.396Z,1546.88
2019-06-10T10:29:32.865Z,1383.75
2019-06-10T10:30:33.228Z,1141.88
2019-06-10T10:31:32.488Z,1125.00
2019-06-10T10:32:33.436Z,2739.38
2019-06-10T10:33:33.366Z,2677.50
2019-06-10T10:34:33.319Z,2536.88
2019-06-10T10:35:32.650Z,2604.38
2019-06-10T10:36:33.573Z,2221.88
2019-06-10T10:37:32.748Z,2143.13
2019-06-10T10:38:34.609Z,1687.50
2019-06-10T10:39:32.733Z,832.50
2019-06-10T10:40:32.740Z,787.50
2019-06-10T10:41:32.384Z,748.13
2019-06-10T10:42:44.654Z,776.25
2019-06-10T10:43:34.055Z,804.38
2019-06-10T10:44:32.179Z,832.50
2019-06-10T10:45:32.182Z,877.50
2019-06-10T10:46:32.608Z,860.63
2019-06-10T10:47:33.591Z,894.38
2019-06-10T10:48:33.517Z,1108.13
2019-06-10T10:49:32.587Z,961.88
2019-06-10T10:50:34.155Z,1237.50
2019-06-10T10:51:32.678Z,1186.88
2019-06-10T10:52:33.068Z,1653.75
2019-06-10T10:53:32.783Z,1018.13
2019-06-10T10:54:36.041Z,1012.50
2019-06-10T10:55:33.345Z,1012.50
2019-06-10T10:56:33.913Z,1023.75
2019-06-10T10:57:33.040Z,1063.13
2019-06-10T10:58:32.511Z,1260.00
2019-06-10T10:59:33.231Z,1164.38
2019-06-10T11:00:37.343Z,1316.25
2019-06-10T11:01:33.370Z,2210.63
2019-06-10T11:02:32.298Z,1524.38
2019-06-10T11:03:33.573Z,1333.13
2019-06-10T11:04:32.923Z,1164.38
2019-06-10T11:05:33.266Z,984.38
2019-06-10T11:06:32.379Z,871.88
2019-06-10T11:07:33.943Z,815.63
2019-06-10T11:08:33.219Z,810.00
2019-06-10T11:09:33.051Z,815.63
2019-06-10T11:10:32.974Z,787.50
2019-06-10T11:11:33.331Z,810.00
2019-06-10T11:12:33.197Z,1648.13
2019-06-10T11:13:33.311Z,905.63
2019-06-10T11:14:33.546Z,1141.88
2019-06-10T11:15:33.789Z,1766.25
2019-06-10T11:16:33.082Z,1265.63
2019-06-10T11:17:33.624Z,1113.75
2019-06-10T11:18:33.913Z,1181.25
2019-06-10T11:19:32.379Z,2452.50
2019-06-10T11:20:33.639Z,2655.00
2019-06-10T11:21:33.066Z,1963.13
2019-06-10T11:22:32.901Z,1867.50
2019-06-10T11:23:33.731Z,1175.63
2019-06-10T11:24:37.666Z,1130.63
2019-06-10T11:25:33.217Z,1226.25
2019-06-10T11:26:32.947Z,1687.50
2019-06-10T11:27:33.141Z,1850.63
2019-06-10T11:28:32.267Z,2182.50
2019-06-10T11:29:32.887Z,2019.38
2019-06-10T11:30:32.473Z,2075.63
2019-06-10T11:31:32.843Z,1237.50
2019-06-10T11:32:32.746Z,1260.00
2019-06-10T11:33:32.827Z,1406.25
2019-06-10T11:34:33.240Z,1389.38
2019-06-10T11:35:31.918Z,1378.13
2019-06-10T11:36:32.706Z,1996.88
2019-06-10T11:37:31.907Z,2542.50
2019-06-10T11:38:32.879Z,2565.00
2019-06-10T11:39:33.308Z,2497.50
2019-06-10T11:40:34.199Z,1344.38
2019-06-10T11:41:32.490Z,1282.50
2019-06-10T11:42:33.453Z,1783.13
2019-06-10T11:43:33.190Z,1946.25
2019-06-10T11:44:33.908Z,2008.13
2019-06-10T11:45:32.864Z,2143.13
2019-06-10T11:46:32.617Z,2098.13
2019-06-10T11:47:33.025Z,1468.13
2019-06-10T11:48:32.795Z,2283.75
2019-06-10T11:49:31.886Z,1968.75
2019-06-10T11:50:33.409Z,1614.38
2019-06-10T11:51:31.849Z,1710.00
2019-06-10T11:52:33.512Z,1974.38
2019-06-10T11:53:34.150Z,1783.13
2019-06-10T11:54:34.004Z,1715.63
2019-06-10T11:55:33.330Z,1918.13
2019-06-10T11:56:33.663Z,1760.63
2019-06-10T11:57:32.925Z,1726.88
2019-06-10T11:58:33.256Z,1271.25
2019-06-10T11:59:32.730Z,1305.00
2019-06-10T12:00:33.112Z,1507.50
2019-06-10T12:01:31.809Z,2058.75
2019-06-10T12:02:32.943Z,2255.63
2019-06-10T12:03:31.801Z,2188.13
2019-06-10T12:04:31.800Z,2115.00
2019-06-10T12:05:32.679Z,2154.38
2019-06-10T12:06:33.998Z,2283.75
2019-06-10T12:07:33.203Z,2570.63
2019-06-10T12:08:32.909Z,2660.63
2019-06-10T12:09:33.396Z,2756.25
2019-06-10T12:10:33.029Z,2615.63
2019-06-10T12:11:34.218Z,2323.13
2019-06-10T12:12:33.930Z,2266.88
2019-06-10T12:13:34.135Z,2469.38
2019-06-10T12:14:33.673Z,2278.13
2019-06-10T12:15:45.601Z,2660.63
2019-06-10T12:17:15.575Z,1389.38
2019-06-10T12:17:43.142Z,1395.00
2019-06-10T12:18:33.289Z,1890.00
2019-06-10T12:19:34.033Z,2328.75
2019-06-10T12:20:33.438Z,2165.63
2019-06-10T12:21:33.094Z,2356.88
2019-06-10T12:22:33.083Z,2750.63
2019-06-10T12:23:33.620Z,3037.50
2019-06-10T12:24:33.167Z,3003.75
2019-06-10T12:25:38.784Z,2941.88
2019-06-10T12:26:33.408Z,3127.50
2019-06-10T12:27:32.814Z,3054.38
2019-06-10T12:28:32.681Z,3105.00
2019-06-10T12:29:31.726Z,3015.00
2019-06-10T12:30:34.422Z,2626.88
2019-06-10T12:31:33.919Z,939.38
2019-06-10T12:32:33.625Z,1006.88
2019-06-10T12:33:33.589Z,1575.00
2019-06-10T12:34:33.302Z,2289.38
2019-06-10T12:35:33.307Z,3358.13
2019-06-10T12:36:32.799Z,1563.75